Time;durP1;ratioP1;P1;durP2;ratioP2;P2;SDS_P1;SDS_P2;PMS_P1;PMS_P2;Temp;Humidity;BMP_temperature;BMP_pressure;BME280_temperature;BME280_humidity;BME280_pressure;Samples;Min_cycle;Max_cycle;Signal;HPM_P1;HPM_P2
2023/09/17 00:01:39;;;;;;;;;5.67;4.33;;;;;;;;5130376;27;8820;-74
2023/09/17 00:04:06;;;;;;;;;7.00;5.67;;;;;;;;5143175;27;8872;-74
2023/09/17 00:06:31;;;;;;;;;8.50;5.50;;;;;;;;5126147;27;8817;-74
2023/09/17 00:08:57;;;;;;;;;8.33;6.67;;;;;;;;5125129;27;9492;-74
2023/09/17 00:11:22;;;;;;;;;7.00;7.00;;;;;;;;5126082;27;8876;-74
2023/09/17 00:13:47;;;;;;;;;6.00;6.00;;;;;;;;5140284;27;8808;-74
2023/09/17 00:16:12;;;;;;;;;9.67;5.67;;;;;;;;5133667;27;9214;-74
2023/09/17 00:18:38;;;;;;;;;10.25;5.00;;;;;;;;5139503;27;8824;-74
2023/09/17 00:21:04;;;;;;;;;7.50;6.00;;;;;;;;5139268;27;9934;-74
2023/09/17 00:23:30;;;;;;;;;7.50;7.25;;;;;;;;5144078;27;8769;-74
2023/09/17 00:25:55;;;;;;;;;7.75;6.75;;;;;;;;5136535;27;9533;-74
2023/09/17 00:28:20;;;;;;;;;8.33;7.33;;;;;;;;5134604;27;8868;-74
2023/09/17 00:30:45;;;;;;;;;8.00;7.00;;;;;;;;5143948;27;8911;-74
2023/09/17 00:33:11;;;;;;;;;6.33;5.67;;;;;;;;5143843;27;8896;-74
2023/09/17 00:35:36;;;;;;;;;7.67;5.33;;;;;;;;5123238;27;8891;-74
2023/09/17 00:38:01;;;;;;;;;5.00;5.00;;;;;;;;5130085;27;8832;-74
2023/09/17 00:40:31;;;;;;;;;6.00;5.00;;;;;;;;5105845;27;9939;-74
2023/09/17 00:42:57;;;;;;;;;4.00;4.00;;;;;;;;5117054;27;8834;-74
2023/09/17 00:45:22;;;;;;;;;5.33;4.67;;;;;;;;5135929;27;10243;-74
2023/09/17 00:47:48;;;;;;;;;9.00;6.75;;;;;;;;5134503;27;8824;-74
2023/09/17 00:50:13;;;;;;;;;4.00;2.00;;;;;;;;5123925;27;8815;-74
2023/09/17 00:52:39;;;;;;;;;7.50;6.00;;;;;;;;5142361;27;8796;-74
2023/09/17 00:55:05;;;;;;;;;6.00;6.00;;;;;;;;5130045;27;8847;-74
2023/09/17 00:57:30;;;;;;;;;5.00;5.00;;;;;;;;5123251;27;9815;-74
2023/09/17 00:59:56;;;;;;;;;5.75;5.75;;;;;;;;5123744;27;9571;-74
2023/09/17 01:02:21;;;;;;;;;8.75;7.00;;;;;;;;5122210;27;8907;-74
2023/09/17 01:04:49;;;;;;;;;4.00;4.00;;;;;;;;5124210;27;8880;-74
2023/09/17 01:07:18;;;;;;;;;5.33;5.00;;;;;;;;5122654;27;8824;-74
2023/09/17 01:09:43;;;;;;;;;7.33;6.00;;;;;;;;5121784;28;10404;-74
2023/09/17 01:12:09;;;;;;;;;6.75;5.75;;;;;;;;5129803;27;9407;-74
2023/09/17 01:14:34;;;;;;;;;6.75;5.00;;;;;;;;5134314;27;8984;-74
2023/09/17 01:17:00;;;;;;;;;8.67;4.33;;;;;;;;5127145;27;8796;-74
2023/09/17 01:19:28;;;;;;;;;5.33;4.33;;;;;;;;5124223;27;8793;-74
2023/09/17 01:22:03;;;;;;;;;5.33;5.33;;;;;;;;5125009;27;9482;-74
2023/09/17 01:24:41;;;;;;;;;6.50;6.00;;;;;;;;5128858;27;10313;-74
2023/09/17 01:27:08;;;;;;;;;8.25;6.00;;;;;;;;5126873;27;9517;-74
2023/09/17 01:29:38;;;;;;;;;6.50;5.00;;;;;;;;5131967;27;9861;-74
2023/09/17 01:32:04;;;;;;;;;5.67;5.67;;;;;;;;5127080;27;9630;-74
2023/09/17 01:34:30;;;;;;;;;4.00;3.00;;;;;;;;5143306;27;9418;-74
2023/09/17 01:36:57;;;;;;;;;6.33;5.33;;;;;;;;5115592;27;9558;-74
2023/09/17 01:39:25;;;;;;;;;8.00;6.50;;;;;;;;5116153;27;9734;-74
2023/09/17 01:41:50;;;;;;;;;3.67;3.67;;;;;;;;5134819;27;9525;-74
2023/09/17 01:44:17;;;;;;;;;4.75;4.75;;;;;;;;5136668;27;9512;-74
2023/09/17 01:46:42;;;;;;;;;6.50;6.00;;;;;;;;5140702;27;8741;-74
2023/09/17 01:49:11;;;;;;;;;8.00;5.75;;;;;;;;5102137;28;9772;-74
2023/09/17 01:51:38;;;;;;;;;5.00;5.00;;;;;;;;5118617;27;8749;-74
2023/09/17 01:54:03;;;;;;;;;5.50;4.75;;;;;;;;5122632;28;9466;-74
2023/09/17 01:56:29;;;;;;;;;4.75;4.75;;;;;;;;5130048;27;9656;-74
2023/09/17 01:58:54;;;;;;;;;3.75;3.75;;;;;;;;5141353;27;8880;-74
2023/09/17 02:01:19;;;;;;;;;8.50;5.25;;;;;;;;5133299;27;8828;-74
2023/09/17 02:03:44;;;;;;;;;6.75;4.25;;;;;;;;5124605;27;8794;-74
2023/09/17 02:06:10;;;;;;;;;6.00;4.75;;;;;;;;5127894;27;9291;-74
2023/09/17 02:08:36;;;;;;;;;8.33;4.33;;;;;;;;5122610;28;8877;-74
2023/09/17 02:11:04;;;;;;;;;6.75;5.75;;;;;;;;5131014;27;8733;-74
2023/09/17 02:13:29;;;;;;;;;6.25;6.25;;;;;;;;5124195;27;9488;-74
2023/09/17 02:15:55;;;;;;;;;6.25;6.25;;;;;;;;5128589;27;9577;-74
2023/09/17 02:18:21;;;;;;;;;7.25;6.25;;;;;;;;5137195;27;8814;-74
2023/09/17 02:20:46;;;;;;;;;7.50;4.75;;;;;;;;5128077;27;8823;-74
2023/09/17 02:23:11;;;;;;;;;5.00;5.00;;;;;;;;5124498;27;11580;-74
2023/09/17 02:25:37;;;;;;;;;6.75;5.00;;;;;;;;5125361;27;9677;-74
2023/09/17 02:28:02;;;;;;;;;6.00;5.00;;;;;;;;5137141;27;8828;-74
2023/09/17 02:30:28;;;;;;;;;5.75;5.75;;;;;;;;5132380;27;8800;-74
2023/09/17 02:32:53;;;;;;;;;2.75;2.75;;;;;;;;5143189;27;8733;-74
2023/09/17 02:35:18;;;;;;;;;10.50;6.50;;;;;;;;5140241;27;9582;-74
2023/09/17 02:37:44;;;;;;;;;7.67;5.67;;;;;;;;5142794;27;8839;-74
2023/09/17 02:40:09;;;;;;;;;3.00;3.00;;;;;;;;5122052;27;9036;-74
2023/09/17 02:42:35;;;;;;;;;6.00;6.00;;;;;;;;5125333;27;8883;-74
2023/09/17 02:45:04;;;;;;;;;6.00;5.00;;;;;;;;5124551;27;8744;-74
2023/09/17 02:47:30;;;;;;;;;6.75;5.25;;;;;;;;5134222;27;10776;-74
2023/09/17 02:49:56;;;;;;;;;3.25;3.25;;;;;;;;5133837;27;9520;-74
2023/09/17 02:52:21;;;;;;;;;7.25;6.00;;;;;;;;5128334;27;10774;-74
2023/09/17 02:54:46;;;;;;;;;11.75;5.25;;;;;;;;5145200;27;8885;-74
2023/09/17 02:57:11;;;;;;;;;5.50;5.50;;;;;;;;5138832;27;8792;-74
2023/09/17 02:59:37;;;;;;;;;9.25;6.75;;;;;;;;5139713;27;8934;-74
2023/09/17 03:02:03;;;;;;;;;9.75;6.50;;;;;;;;5138372;27;8805;-74
2023/09/17 03:04:29;;;;;;;;;6.50;6.00;;;;;;;;5140655;27;8781;-74
2023/09/17 03:06:54;;;;;;;;;7.50;7.50;;;;;;;;5142692;27;9894;-74
2023/09/17 03:09:19;;;;;;;;;7.33;7.33;;;;;;;;5128402;27;8872;-74
2023/09/17 03:11:44;;;;;;;;;10.75;8.00;;;;;;;;5122613;28;9617;-74
2023/09/17 03:14:10;;;;;;;;;9.00;7.25;;;;;;;;5129306;27;8929;-74
2023/09/17 03:16:35;;;;;;;;;8.50;8.25;;;;;;;;5125006;27;8783;-74
2023/09/17 03:19:00;;;;;;;;;13.50;12.00;;;;;;;;5125379;28;8836;-74
2023/09/17 03:21:26;;;;;;;;;10.25;8.75;;;;;;;;5125277;27;8810;-74
2023/09/17 03:23:54;;;;;;;;;16.00;11.50;;;;;;;;5143064;27;8828;-74
2023/09/17 03:26:20;;;;;;;;;17.50;9.50;;;;;;;;5140099;27;8810;-74
2023/09/17 03:28:45;;;;;;;;;13.25;11.50;;;;;;;;5123858;27;9953;-74
2023/09/17 03:31:11;;;;;;;;;14.25;11.25;;;;;;;;5129307;27;10070;-74
2023/09/17 03:33:36;;;;;;;;;11.75;9.25;;;;;;;;5142222;27;8788;-74
2023/09/17 03:36:01;;;;;;;;;11.50;11.50;;;;;;;;5124643;27;8807;-74
2023/09/17 03:38:26;;;;;;;;;10.50;9.75;;;;;;;;5133740;27;8824;-74
2023/09/17 03:40:52;;;;;;;;;9.50;9.00;;;;;;;;5126893;27;8939;-74
2023/09/17 03:43:17;;;;;;;;;12.00;9.50;;;;;;;;5133817;27;9618;-74
2023/09/17 03:45:43;;;;;;;;;15.25;11.75;;;;;;;;5143161;27;8895;-74
2023/09/17 03:48:08;;;;;;;;;9.25;9.25;;;;;;;;5128214;27;8850;-74
2023/09/17 03:50:38;;;;;;;;;14.25;12.00;;;;;;;;5132983;27;8793;-74
2023/09/17 03:53:05;;;;;;;;;14.00;10.75;;;;;;;;5141120;27;8745;-74
2023/09/17 03:55:31;;;;;;;;;13.25;11.00;;;;;;;;5122908;27;10188;-74
2023/09/17 03:57:57;;;;;;;;;11.25;10.25;;;;;;;;5140456;27;9817;-74
2023/09/17 04:00:23;;;;;;;;;14.75;12.50;;;;;;;;5128052;27;8864;-74
2023/09/17 04:02:49;;;;;;;;;11.25;9.00;;;;;;;;5137675;27;8741;-74
2023/09/17 04:05:15;;;;;;;;;13.00;11.50;;;;;;;;5123256;27;9842;-74
2023/09/17 04:07:41;;;;;;;;;17.00;13.50;;;;;;;;5124062;27;8773;-74
2023/09/17 04:10:07;;;;;;;;;16.25;13.00;;;;;;;;5123820;27;8753;-74
2023/09/17 04:12:33;;;;;;;;;13.00;11.00;;;;;;;;5125443;27;9868;-74
2023/09/17 04:14:58;;;;;;;;;13.00;11.75;;;;;;;;5127815;27;8800;-74
2023/09/17 04:17:24;;;;;;;;;10.75;8.00;;;;;;;;5130702;27;9293;-74
2023/09/17 04:19:52;;;;;;;;;17.50;10.50;;;;;;;;5138681;27;8796;-74
2023/09/17 04:22:17;;;;;;;;;11.50;10.75;;;;;;;;5128382;27;9736;-74
2023/09/17 04:24:43;;;;;;;;;11.25;10.00;;;;;;;;5128040;27;10882;-74
2023/09/17 04:27:08;;;;;;;;;12.75;11.00;;;;;;;;5123002;28;8854;-74
2023/09/17 04:29:34;;;;;;;;;9.00;9.00;;;;;;;;5124893;27;8965;-74
2023/09/17 04:31:59;;;;;;;;;14.75;13.00;;;;;;;;5130592;27;9112;-74
2023/09/17 04:34:25;;;;;;;;;7.50;6.75;;;;;;;;5136238;27;8828;-74
2023/09/17 04:36:50;;;;;;;;;12.00;9.25;;;;;;;;5129188;27;8755;-74
2023/09/17 04:39:16;;;;;;;;;11.75;10.00;;;;;;;;5128209;27;9889;-73
2023/09/17 04:41:41;;;;;;;;;13.00;10.25;;;;;;;;5143937;27;8807;-74
2023/09/17 04:44:10;;;;;;;;;9.75;9.75;;;;;;;;5132483;27;10031;-74
2023/09/17 04:46:43;;;;;;;;;11.33;10.33;;;;;;;;5110536;27;8811;-74
2023/09/17 04:49:08;;;;;;;;;9.50;9.00;;;;;;;;5124324;27;9450;-74
2023/09/17 04:51:34;;;;;;;;;10.75;9.00;;;;;;;;5122955;28;9819;-74
2023/09/17 04:53:59;;;;;;;;;12.50;10.00;;;;;;;;5131912;27;9299;-74
2023/09/17 04:56:24;;;;;;;;;10.75;7.75;;;;;;;;5128426;27;8825;-74
2023/09/17 04:58:50;;;;;;;;;9.00;7.50;;;;;;;;5130083;27;8808;-74
2023/09/17 05:01:15;;;;;;;;;15.00;10.00;;;;;;;;5127365;27;8823;-74
2023/09/17 05:03:42;;;;;;;;;9.25;7.50;;;;;;;;5123631;27;8799;-74
2023/09/17 05:06:07;;;;;;;;;14.25;11.00;;;;;;;;5125719;27;8880;-74
2023/09/17 05:08:32;;;;;;;;;10.50;9.25;;;;;;;;5160691;27;9849;-74
2023/09/17 05:10:57;;;;;;;;;10.25;9.00;;;;;;;;5129109;27;8808;-74
2023/09/17 05:13:23;;;;;;;;;10.00;10.00;;;;;;;;5128603;27;8821;-74
2023/09/17 05:15:48;;;;;;;;;6.50;6.50;;;;;;;;5124283;27;8807;-74
2023/09/17 05:18:13;;;;;;;;;7.75;7.50;;;;;;;;5130987;27;8841;-74
2023/09/17 05:20:41;;;;;;;;;9.50;7.50;;;;;;;;5122125;27;8796;-74
2023/09/17 05:23:07;;;;;;;;;8.25;8.25;;;;;;;;5136855;27;8927;-74
2023/09/17 05:25:32;;;;;;;;;9.25;8.00;;;;;;;;5141939;27;9753;-74
2023/09/17 05:27:57;;;;;;;;;7.50;7.50;;;;;;;;5142864;27;8855;-74
2023/09/17 05:30:23;;;;;;;;;10.25;6.50;;;;;;;;5143774;27;8924;-74
2023/09/17 05:32:48;;;;;;;;;10.75;7.25;;;;;;;;5132989;27;8941;-74
2023/09/17 05:35:13;;;;;;;;;8.75;8.75;;;;;;;;5130910;27;8894;-74
2023/09/17 05:37:39;;;;;;;;;10.25;8.50;;;;;;;;5126488;27;8812;-74
2023/09/17 05:40:05;;;;;;;;;9.00;9.00;;;;;;;;5119568;27;8932;-74
2023/09/17 05:42:31;;;;;;;;;6.50;6.00;;;;;;;;5136209;27;10272;-79
2023/09/17 05:44:56;;;;;;;;;9.75;6.75;;;;;;;;5142753;27;9508;-76
2023/09/17 05:47:21;;;;;;;;;9.75;8.00;;;;;;;;5141411;27;9640;-73
2023/09/17 05:49:46;;;;;;;;;13.75;7.25;;;;;;;;5142519;27;8820;-74
2023/09/17 05:52:12;;;;;;;;;9.00;7.50;;;;;;;;5127849;27;9237;-76
2023/09/17 05:54:37;;;;;;;;;7.50;7.25;;;;;;;;5134919;27;8796;-75
2023/09/17 05:57:02;;;;;;;;;10.00;9.50;;;;;;;;5131658;27;8788;-75
2023/09/17 05:59:27;;;;;;;;;10.25;10.25;;;;;;;;5143389;27;8831;-75
2023/09/17 06:01:53;;;;;;;;;11.50;8.75;;;;;;;;5135981;27;8804;-75
2023/09/17 06:04:18;;;;;;;;;11.50;6.00;;;;;;;;5122260;28;9563;-74
2023/09/17 06:06:43;;;;;;;;;5.50;5.50;;;;;;;;5130841;27;8811;-75
2023/09/17 06:09:09;;;;;;;;;5.00;5.00;;;;;;;;5122025;27;8795;-75
2023/09/17 06:11:34;;;;;;;;;5.50;5.50;;;;;;;;5123343;27;8863;-74
2023/09/17 06:13:59;;;;;;;;;8.50;6.00;;;;;;;;5121301;27;8832;-74
2023/09/17 06:16:24;;;;;;;;;4.50;4.50;;;;;;;;5123687;27;8823;-73
2023/09/17 06:18:50;;;;;;;;;3.25;3.25;;;;;;;;5123982;27;8926;-73
2023/09/17 06:21:16;;;;;;;;;6.00;5.00;;;;;;;;5137794;27;8849;-74
2023/09/17 06:23:41;;;;;;;;;6.33;5.00;;;;;;;;5130926;27;8801;-73
2023/09/17 06:26:07;;;;;;;;;6.33;4.33;;;;;;;;5123967;27;9582;-73
2023/09/17 06:28:33;;;;;;;;;5.50;4.75;;;;;;;;5127150;27;8812;-74
2023/09/17 06:30:58;;;;;;;;;5.75;3.50;;;;;;;;5145596;27;9696;-74
2023/09/17 06:33:24;;;;;;;;;6.75;4.25;;;;;;;;5134918;27;8811;-75
2023/09/17 06:35:49;;;;;;;;;5.67;4.67;;;;;;;;5124468;27;9568;-75
2023/09/17 06:38:15;;;;;;;;;6.00;5.00;;;;;;;;5124205;28;8812;-75
2023/09/17 06:40:40;;;;;;;;;6.33;6.00;;;;;;;;5133388;27;10098;-77
2023/09/17 06:43:05;;;;;;;;;3.67;3.67;;;;;;;;5146420;27;8888;-75
2023/09/17 06:45:30;;;;;;;;;4.67;4.67;;;;;;;;5143852;27;8796;-74
2023/09/17 06:47:56;;;;;;;;;7.00;4.67;;;;;;;;5125052;27;8884;-73
2023/09/17 06:50:21;;;;;;;;;5.33;4.33;;;;;;;;5143456;27;8816;-74
2023/09/17 06:52:46;;;;;;;;;4.33;3.00;;;;;;;;5145749;27;8830;-73
2023/09/17 06:55:11;;;;;;;;;4.33;4.33;;;;;;;;5143399;27;8993;-73
2023/09/17 06:57:37;;;;;;;;;6.33;5.33;;;;;;;;5132112;27;8816;-73
2023/09/17 07:00:03;;;;;;;;;5.67;4.33;;;;;;;;5132617;27;8892;-74
2023/09/17 07:02:28;;;;;;;;;3.33;3.00;;;;;;;;5126335;27;8793;-74
2023/09/17 07:04:53;;;;;;;;;4.67;4.67;;;;;;;;5118462;27;9414;-74
2023/09/17 07:07:20;;;;;;;;;5.33;4.33;;;;;;;;5124309;27;8847;-74
2023/09/17 07:09:45;;;;;;;;;3.33;3.33;;;;;;;;5137303;27;8831;-74
2023/09/17 07:12:11;;;;;;;;;4.00;4.00;;;;;;;;5125012;27;10172;-73
2023/09/17 07:14:36;;;;;;;;;5.00;5.00;;;;;;;;5130397;27;9112;-74
2023/09/17 07:17:01;;;;;;;;;6.33;5.00;;;;;;;;5128131;27;8820;-78
2023/09/17 07:19:27;;;;;;;;;6.00;4.00;;;;;;;;5135173;27;8971;-78
2023/09/17 07:21:52;;;;;;;;;3.33;3.00;;;;;;;;5143671;27;8800;-75
2023/09/17 07:24:18;;;;;;;;;4.33;4.33;;;;;;;;5143253;27;8803;-75
2023/09/17 07:26:44;;;;;;;;;6.33;4.00;;;;;;;;5144337;27;8834;-78
2023/09/17 07:29:09;;;;;;;;;4.00;3.67;;;;;;;;5134208;27;8882;-77
2023/09/17 07:31:34;;;;;;;;;5.00;3.33;;;;;;;;5124272;27;11037;-77
2023/09/17 07:34:00;;;;;;;;;4.67;4.67;;;;;;;;5131229;27;8827;-76
2023/09/17 07:36:25;;;;;;;;;5.33;4.00;;;;;;;;5125295;27;8820;-76
2023/09/17 07:38:51;;;;;;;;;6.33;3.67;;;;;;;;5141356;27;9641;-75
2023/09/17 07:41:16;;;;;;;;;3.00;3.00;;;;;;;;5124645;27;8825;-76
2023/09/17 07:43:42;;;;;;;;;5.00;3.00;;;;;;;;5124123;27;9252;-77
2023/09/17 07:46:11;;;;;;;;;5.67;5.67;;;;;;;;5135281;27;8808;-77
2023/09/17 07:48:39;;;;;;;;;9.33;5.33;;;;;;;;5123424;27;9809;-77
2023/09/17 07:51:05;;;;;;;;;4.67;4.00;;;;;;;;5123399;27;9131;-76
2023/09/17 07:53:32;;;;;;;;;5.67;3.33;;;;;;;;5140709;27;9293;-75
2023/09/17 07:55:58;;;;;;;;;6.33;5.00;;;;;;;;5143982;27;8863;-76
2023/09/17 07:58:23;;;;;;;;;5.67;4.33;;;;;;;;5134136;27;10149;-77
2023/09/17 08:00:49;;;;;;;;;5.00;5.00;;;;;;;;5130135;27;8828;-76
2023/09/17 08:03:18;;;;;;;;;3.67;3.67;;;;;;;;5140904;27;9914;-75
2023/09/17 08:05:45;;;;;;;;;4.00;4.00;;;;;;;;5132336;27;9321;-78
2023/09/17 08:08:10;;;;;;;;;3.67;3.67;;;;;;;;5129457;27;10079;-80
2023/09/17 08:10:36;;;;;;;;;3.33;3.33;;;;;;;;5135988;27;9658;-75
2023/09/17 08:13:01;;;;;;;;;4.00;3.00;;;;;;;;5122384;27;8922;-76
2023/09/17 08:15:27;;;;;;;;;5.33;5.33;;;;;;;;5134680;27;8808;-77
2023/09/17 08:17:53;;;;;;;;;7.67;6.33;;;;;;;;5137415;27;8812;-78
2023/09/17 08:20:19;;;;;;;;;2.00;2.00;;;;;;;;5124113;27;9264;-78
2023/09/17 08:22:45;;;;;;;;;4.33;4.00;;;;;;;;5123543;27;8817;-78
2023/09/17 08:25:10;;;;;;;;;6.00;3.00;;;;;;;;5128019;27;9157;-78
2023/09/17 08:27:35;;;;;;;;;2.00;2.00;;;;;;;;5134628;27;10633;-79
2023/09/17 08:30:06;;;;;;;;;4.67;4.67;;;;;;;;5130742;27;8849;-78
2023/09/17 08:32:33;;;;;;;;;2.00;2.00;;;;;;;;5135401;27;8800;-77
2023/09/17 08:34:58;;;;;;;;;5.00;4.00;;;;;;;;5142163;27;9047;-78
2023/09/17 08:37:24;;;;;;;;;3.67;3.67;;;;;;;;5132630;27;10116;-79
2023/09/17 08:39:50;;;;;;;;;4.00;3.00;;;;;;;;5121863;27;8833;-74
2023/09/17 08:42:15;;;;;;;;;4.00;3.00;;;;;;;;5139214;27;8819;-82
2023/09/17 08:44:42;;;;;;;;;4.67;3.33;;;;;;;;5130889;27;8847;-80
2023/09/17 08:47:07;;;;;;;;;3.67;3.67;;;;;;;;5114526;27;8809;-81
2023/09/17 08:49:32;;;;;;;;;5.00;3.33;;;;;;;;5122649;27;9155;-80
2023/09/17 08:52:02;;;;;;;;;4.33;4.33;;;;;;;;5123516;27;8830;-78
2023/09/17 08:54:42;;;;;;;;;6.00;5.00;;;;;;;;5124741;27;8761;-79
2023/09/17 08:57:10;;;;;;;;;3.67;3.67;;;;;;;;5121751;27;9288;-78
2023/09/17 08:59:38;;;;;;;;;4.00;4.00;;;;;;;;5126874;27;10217;-78
2023/09/17 09:02:18;;;;;;;;;6.00;5.00;;;;;;;;5124986;27;9171;-81
2023/09/17 09:04:44;;;;;;;;;5.00;5.00;;;;;;;;5126090;27;9181;-81
2023/09/17 09:07:09;;;;;;;;;3.00;3.00;;;;;;;;5128124;27;9351;-81
2023/09/17 09:09:36;;;;;;;;;2.67;2.67;;;;;;;;5128188;27;9576;-81
2023/09/17 09:12:01;;;;;;;;;8.00;4.00;;;;;;;;5124295;27;8795;-86
2023/09/17 09:14:27;;;;;;;;;6.00;5.00;;;;;;;;5141309;27;9124;-83
2023/09/17 09:16:53;;;;;;;;;4.33;4.00;;;;;;;;5131099;27;9970;-82
2023/09/17 09:19:19;;;;;;;;;5.67;5.67;;;;;;;;5138378;27;11455;-83
2023/09/17 09:21:44;;;;;;;;;4.33;4.00;;;;;;;;5132498;27;9130;-79
2023/09/17 09:24:09;;;;;;;;;8.00;4.67;;;;;;;;5140510;27;8836;-83
2023/09/17 09:26:36;;;;;;;;;2.67;2.67;;;;;;;;5143510;27;8845;-84
2023/09/17 09:29:01;;;;;;;;;5.00;4.00;;;;;;;;5131266;27;8806;-81
2023/09/17 09:31:29;;;;;;;;;5.00;4.00;;;;;;;;5121960;28;9301;-83
2023/09/17 09:33:56;;;;;;;;;8.00;3.67;;;;;;;;5126417;27;9052;-86
2023/09/17 09:36:21;;;;;;;;;4.00;2.67;;;;;;;;5137597;27;9208;-88
2023/09/17 09:38:47;;;;;;;;;5.67;4.00;;;;;;;;5122432;27;9226;-88
2023/09/17 09:41:12;;;;;;;;;4.00;4.00;;;;;;;;5131773;27;8784;-81
2023/09/17 09:43:38;;;;;;;;;6.67;5.00;;;;;;;;5129502;27;8880;-80
2023/09/17 09:46:04;;;;;;;;;7.00;3.67;;;;;;;;5121800;27;8870;-78
2023/09/17 09:48:30;;;;;;;;;5.33;5.33;;;;;;;;5124019;27;8981;-83
2023/09/17 09:50:55;;;;;;;;;5.67;5.67;;;;;;;;5129658;27;9012;-81
2023/09/17 09:53:20;;;;;;;;;7.00;5.00;;;;;;;;5141548;27;8804;-81
2023/09/17 09:55:46;;;;;;;;;4.67;4.67;;;;;;;;5132945;27;8836;-80
2023/09/17 09:58:13;;;;;;;;;5.33;4.33;;;;;;;;5127496;27;8776;-80
2023/09/17 10:00:44;;;;;;;;;5.00;5.00;;;;;;;;5140808;27;10572;-90
2023/09/17 10:03:10;;;;;;;;;6.00;5.00;;;;;;;;5129050;27;8929;-80
2023/09/17 10:05:37;;;;;;;;;7.00;5.00;;;;;;;;5128349;27;10047;-78
2023/09/17 10:08:06;;;;;;;;;7.50;5.00;;;;;;;;5129123;27;8839;-81
2023/09/17 10:10:32;;;;;;;;;6.00;4.00;;;;;;;;5131585;27;8730;-80
2023/09/17 10:12:59;;;;;;;;;8.00;5.00;;;;;;;;5136736;27;8848;-87
2023/09/17 10:15:25;;;;;;;;;6.33;5.33;;;;;;;;5137141;27;8831;-84
2023/09/17 10:17:51;;;;;;;;;6.33;5.00;;;;;;;;5130918;27;9825;-77
2023/09/17 10:20:18;;;;;;;;;5.00;3.67;;;;;;;;5128506;27;8935;-77
2023/09/17 10:22:46;;;;;;;;;8.67;8.00;;;;;;;;5138295;27;8837;-80
2023/09/17 10:25:14;;;;;;;;;5.33;4.67;;;;;;;;5134195;27;9148;-85
2023/09/17 10:27:42;;;;;;;;;5.67;5.67;;;;;;;;5122475;27;9042;-80
2023/09/17 10:30:08;;;;;;;;;7.00;4.50;;;;;;;;5120915;27;8967;-89
2023/09/17 10:32:34;;;;;;;;;4.67;4.67;;;;;;;;5128474;27;8785;-83
2023/09/17 10:35:00;;;;;;;;;5.33;4.67;;;;;;;;5124254;27;10203;-77
2023/09/17 10:37:26;;;;;;;;;15.00;13.00;;;;;;;;5142977;27;9630;-86
2023/09/17 10:39:52;;;;;;;;;13.33;11.67;;;;;;;;5130943;27;8812;-87
2023/09/17 10:42:19;;;;;;;;;12.00;9.00;;;;;;;;5131293;27;8726;-80
2023/09/17 10:44:46;;;;;;;;;22.33;21.00;;;;;;;;5124330;27;9067;-77
2023/09/17 10:47:12;;;;;;;;;9.33;9.33;;;;;;;;5122231;27;9697;-80
2023/09/17 10:49:41;;;;;;;;;8.00;6.67;;;;;;;;5120790;27;9769;-81
2023/09/17 10:52:09;;;;;;;;;6.00;6.00;;;;;;;;5121443;27;8749;-80
2023/09/17 10:54:35;;;;;;;;;28.00;16.00;;;;;;;;5124756;27;10057;-84
2023/09/17 10:57:03;;;;;;;;;24.33;22.00;;;;;;;;5121550;27;9524;-82
2023/09/17 10:59:29;;;;;;;;;37.50;32.00;;;;;;;;5123405;27;8799;-84
2023/09/17 11:01:54;;;;;;;;;15.00;14.00;;;;;;;;5131366;27;10331;-85
2023/09/17 11:04:22;;;;;;;;;24.67;20.33;;;;;;;;5124967;27;9490;-86
2023/09/17 11:06:49;;;;;;;;;17.67;17.67;;;;;;;;5135178;27;9676;-82
2023/09/17 11:09:14;;;;;;;;;14.67;10.67;;;;;;;;5121015;27;9481;-81
2023/09/17 11:11:40;;;;;;;;;12.00;12.00;;;;;;;;5123473;27;9238;-80
2023/09/17 11:14:06;;;;;;;;;10.00;9.00;;;;;;;;5131587;27;8809;-80
2023/09/17 11:16:34;;;;;;;;;6.33;6.33;;;;;;;;5128712;27;9006;-80
2023/09/17 11:19:10;;;;;;;;;8.00;4.50;;;;;;;;5132824;27;8851;-81
2023/09/17 11:21:36;;;;;;;;;9.67;7.33;;;;;;;;5136224;27;8772;-80
2023/09/17 11:24:05;;;;;;;;;11.67;10.33;;;;;;;;5133297;27;10114;-80
2023/09/17 11:26:31;;;;;;;;;11.25;10.00;;;;;;;;5102850;27;8843;-80
2023/09/17 11:28:57;;;;;;;;;12.67;9.00;;;;;;;;5140743;27;8814;-80
2023/09/17 11:31:28;;;;;;;;;7.00;6.00;;;;;;;;5131702;27;9052;-80
2023/09/17 11:33:57;;;;;;;;;11.00;8.33;;;;;;;;5130399;27;10127;-80
2023/09/17 11:36:23;;;;;;;;;13.00;12.00;;;;;;;;5137192;27;8978;-84
2023/09/17 11:38:50;;;;;;;;;9.67;9.33;;;;;;;;5125911;27;9116;-82
2023/09/17 11:41:18;;;;;;;;;7.00;7.00;;;;;;;;5126649;27;8769;-76
2023/09/17 11:43:46;;;;;;;;;5.50;5.50;;;;;;;;5133878;27;9268;-76
2023/09/17 11:46:13;;;;;;;;;6.33;5.67;;;;;;;;5142687;27;8721;-81
2023/09/17 11:48:41;;;;;;;;;7.75;6.75;;;;;;;;5133606;27;8923;-78
2023/09/17 11:51:26;;;;;;;;;10.33;7.00;;;;;;;;5130545;27;8744;-77
2023/09/17 11:53:53;;;;;;;;;17.67;14.33;;;;;;;;5138392;27;8834;-78
2023/09/17 11:56:19;;;;;;;;;21.67;16.00;;;;;;;;5129765;27;9202;-74
2023/09/17 11:58:46;;;;;;;;;17.33;14.67;;;;;;;;5136011;27;10214;-78
2023/09/17 12:01:12;;;;;;;;;18.67;18.67;;;;;;;;5122151;27;9289;-85
2023/09/17 12:03:40;;;;;;;;;20.67;16.00;;;;;;;;5124304;27;9968;-80
2023/09/17 12:06:06;;;;;;;;;8.00;8.00;;;;;;;;5136249;27;8792;-78
2023/09/17 12:08:32;;;;;;;;;14.33;10.67;;;;;;;;5131129;27;8956;-79
2023/09/17 12:11:02;;;;;;;;;14.00;10.00;;;;;;;;5130904;27;9827;-75
2023/09/17 12:13:30;;;;;;;;;7.50;6.75;;;;;;;;5129966;27;8741;-77
2023/09/17 12:15:56;;;;;;;;;8.75;8.75;;;;;;;;5126731;27;8772;-75
2023/09/17 12:18:23;;;;;;;;;8.50;8.50;;;;;;;;5134577;27;8826;-81
2023/09/17 12:20:56;;;;;;;;;7.67;6.67;;;;;;;;5131627;27;8868;-76
2023/09/17 12:23:36;;;;;;;;;10.33;9.33;;;;;;;;5136938;27;9128;-77
2023/09/17 12:26:07;;;;;;;;;7.25;7.25;;;;;;;;5128216;27;8931;-77
2023/09/17 12:28:33;;;;;;;;;6.00;6.00;;;;;;;;5133012;27;8761;-75
2023/09/17 12:30:58;;;;;;;;;9.33;8.33;;;;;;;;5130151;27;10897;-75
2023/09/17 12:33:24;;;;;;;;;6.00;6.00;;;;;;;;5133610;27;9951;-75
2023/09/17 12:35:50;;;;;;;;;7.00;5.67;;;;;;;;5135514;27;8834;-75
2023/09/17 12:38:16;;;;;;;;;10.00;6.75;;;;;;;;5129321;27;8814;-75
2023/09/17 12:40:41;;;;;;;;;11.00;5.00;;;;;;;;5127198;27;8803;-75
2023/09/17 12:43:08;;;;;;;;;8.00;7.00;;;;;;;;5140820;27;8985;-75
2023/09/17 12:45:33;;;;;;;;;8.50;7.75;;;;;;;;5134171;27;8874;-75
2023/09/17 12:47:58;;;;;;;;;4.00;4.00;;;;;;;;5128373;27;8874;-75
2023/09/17 12:50:26;;;;;;;;;5.67;4.67;;;;;;;;5134799;27;8812;-75
2023/09/17 12:52:51;;;;;;;;;8.25;6.75;;;;;;;;5124740;27;10044;-77
2023/09/17 12:55:17;;;;;;;;;6.00;5.00;;;;;;;;5134504;27;8804;-76
2023/09/17 12:57:47;;;;;;;;;5.67;5.67;;;;;;;;5134547;27;8777;-77
2023/09/17 13:00:13;;;;;;;;;8.75;5.75;;;;;;;;5125904;27;8816;-77
2023/09/17 13:02:39;;;;;;;;;6.50;4.75;;;;;;;;5132160;27;8856;-76
2023/09/17 13:05:04;;;;;;;;;6.33;5.67;;;;;;;;5127971;27;9095;-76
2023/09/17 13:07:30;;;;;;;;;5.67;5.00;;;;;;;;5129409;27;8880;-77
2023/09/17 13:09:56;;;;;;;;;3.33;3.33;;;;;;;;5133609;27;8844;-76
2023/09/17 13:12:28;;;;;;;;;5.75;3.50;;;;;;;;5130841;27;8798;-77
2023/09/17 13:14:57;;;;;;;;;4.75;4.00;;;;;;;;5133222;27;8755;-77
2023/09/17 13:17:25;;;;;;;;;5.50;5.25;;;;;;;;5131219;27;8764;-76
2023/09/17 13:19:51;;;;;;;;;8.33;6.33;;;;;;;;5132901;27;8761;-77
2023/09/17 13:22:18;;;;;;;;;4.25;3.50;;;;;;;;5134906;27;8855;-76
2023/09/17 13:24:44;;;;;;;;;5.00;5.00;;;;;;;;5130869;27;8743;-77
2023/09/17 13:27:09;;;;;;;;;2.25;2.25;;;;;;;;5138567;27;8772;-76
2023/09/17 13:29:40;;;;;;;;;4.33;4.00;;;;;;;;5140687;27;8804;-76
2023/09/17 13:32:10;;;;;;;;;4.50;3.00;;;;;;;;5128647;27;8800;-77
2023/09/17 13:34:36;;;;;;;;;4.25;4.25;;;;;;;;5138925;27;8797;-76
2023/09/17 13:37:03;;;;;;;;;4.00;4.00;;;;;;;;5130335;27;8755;-77
2023/09/17 13:39:30;;;;;;;;;4.00;3.75;;;;;;;;5134500;27;8923;-78
2023/09/17 13:41:58;;;;;;;;;4.00;4.00;;;;;;;;5130487;27;8745;-78
2023/09/17 13:44:23;;;;;;;;;3.75;2.75;;;;;;;;5128891;27;8791;-77
2023/09/17 13:46:49;;;;;;;;;2.33;2.33;;;;;;;;5137968;27;8827;-77
2023/09/17 13:49:14;;;;;;;;;6.33;5.00;;;;;;;;5136352;27;8970;-77
2023/09/17 13:51:40;;;;;;;;;6.67;3.33;;;;;;;;5133908;27;8866;-77
2023/09/17 13:54:06;;;;;;;;;4.25;4.25;;;;;;;;5142968;27;8827;-77
2023/09/17 13:56:31;;;;;;;;;5.67;4.00;;;;;;;;5124815;27;9540;-78
2023/09/17 13:58:56;;;;;;;;;5.00;3.33;;;;;;;;5140664;27;8817;-77
2023/09/17 14:01:22;;;;;;;;;5.33;4.33;;;;;;;;5126270;27;10234;-77
2023/09/17 14:03:47;;;;;;;;;6.00;4.00;;;;;;;;5135060;27;8811;-76
2023/09/17 14:06:12;;;;;;;;;3.33;3.33;;;;;;;;5117323;28;8826;-76
2023/09/17 14:08:38;;;;;;;;;4.00;3.67;;;;;;;;5130960;27;8831;-75
2023/09/17 14:11:03;;;;;;;;;4.00;4.00;;;;;;;;5127596;27;8800;-75
2023/09/17 14:13:28;;;;;;;;;3.67;3.67;;;;;;;;5125123;27;8792;-75
2023/09/17 14:15:54;;;;;;;;;8.00;4.00;;;;;;;;5129561;27;8808;-76
2023/09/17 14:18:19;;;;;;;;;4.00;4.00;;;;;;;;5134291;27;8835;-75
2023/09/17 14:20:44;;;;;;;;;5.00;4.00;;;;;;;;5127807;27;9934;-75
2023/09/17 14:23:09;;;;;;;;;5.67;5.00;;;;;;;;5132564;27;8793;-75
2023/09/17 14:25:35;;;;;;;;;5.00;4.00;;;;;;;;5129649;27;8931;-75
2023/09/17 14:28:00;;;;;;;;;4.00;3.00;;;;;;;;5130670;27;8862;-76
2023/09/17 14:30:26;;;;;;;;;4.67;3.67;;;;;;;;5137961;27;8800;-78
2023/09/17 14:32:52;;;;;;;;;5.50;4.25;;;;;;;;5128117;27;8831;-77
2023/09/17 14:35:18;;;;;;;;;4.75;4.00;;;;;;;;5135122;27;8857;-77
2023/09/17 14:37:44;;;;;;;;;6.00;4.00;;;;;;;;5127655;27;8812;-77
2023/09/17 14:40:09;;;;;;;;;7.00;4.33;;;;;;;;5126678;27;10146;-77
2023/09/17 14:42:35;;;;;;;;;6.67;5.67;;;;;;;;5135499;27;8831;-83
2023/09/17 14:45:00;;;;;;;;;3.33;3.33;;;;;;;;5133670;27;8800;-84